Flight Track Log - Related Links

Times and Time Zones

All times are in EDT time to prevent confusion due to time zone crossing. See the UAL332 flight status page for this flight to view local times or setup timezone preferences in your user account.

Time Position Orientation Groundspeed Altitude Reporting Facility
EDT Latitude Longitude Course Direction KTS MPH feet Rate Location/Type
Fri 09:25:01 AM 45.5972 -122.6028 90° East 168 193 500  Level Seattle Center
Fri 09:25:19 AM 45.6047 -122.6181 305° West 174 200 1,200 1,890 Climbing Seattle Center
Fri 09:26:14 AM 45.6236 -122.6908 290° West 232 267 2,800 2,628 Climbing Seattle Center
Fri 09:27:20 AM 45.6683 -122.7839 305° West 261 300 6,500 3,185 Climbing Seattle Center
Fri 09:27:35 AM 45.6811 -122.7933 333° Northwest 239 275 7,100 2,800 Climbing Seattle Center
Fri 09:28:35 AM 45.7381 -122.7394 33° Northeast 280 322 10,000 1,983 Climbing Seattle Center
Fri 09:29:00 AM 45.7334 -121.7450 90° East  Level FlightAware Approximate
Fri 09:29:36 AM 45.7431 -122.6125 87° East 322 371 11,100  Level Seattle Center
Fri 09:30:00 AM 45.7334 -121.5566 90° East  Level FlightAware Approximate
Fri 09:30:37 AM 45.7450 -122.4608 89° East 376 433 13,300  Level Seattle Center
Fri 09:31:37 AM 45.7456 -122.3017 90° East 396 456 15,800 2,678 Climbing Seattle Center
Fri 09:32:38 AM 45.7447 -122.1364 90° East 412 474 18,700 2,803 Climbing Seattle Center
Fri 09:33:39 AM 45.7453 -121.9783 90° East 400 460 21,500 1,835 Climbing Seattle Center
Fri 09:34:39 AM 45.7464 -121.8208 89° East 409 471 22,400 1,091 Climbing Seattle Center
Fri 09:35:40 AM 45.7450 -121.6422 91° East 444 511 23,700 1,190 Climbing Seattle Center
Fri 09:36:40 AM 45.7436 -121.4536 91° East 468 539 24,800 1,091 Climbing Seattle Center
Fri 09:37:41 AM 45.7422 -121.2578 91° East 489 563 25,900 1,180 Climbing Seattle Center
Fri 09:38:42 AM 45.7392 -121.0567 91° East 504 580 27,200 1,091 Climbing Seattle Center
Fri 09:39:42 AM 45.7186 -120.8519 98° East 515 593 28,100 1,488 Climbing Seattle Center
Fri 09:40:43 AM 45.6892 -120.6036 100° East 526 605 30,200 1,672 Climbing Seattle Center
Fri 09:41:44 AM 45.6650 -120.4017 100° East 518 596 31,500 1,190 Climbing Seattle Center
Fri 09:42:44 AM 45.6397 -120.2006 100° East 514 592 32,600 744 Climbing Seattle Center
Fri 09:43:45 AM 45.6150 -119.9983 100° East 514 592 33,000 197 Climbing Seattle Center
Fri 09:44:46 AM 45.5897 -119.7972 100° East 513 590 33,000  Level Seattle Center
Fri 09:45:46 AM 45.5631 -119.5933 101° East 518 596 33,000  Level Seattle Center
Fri 09:46:47 AM 45.5367 -119.3897 100° East 520 598 33,000  Level Seattle Center
Fri 09:47:48 AM 45.5103 -119.1861 100° East 521 600 33,000  Level Seattle Center
Fri 09:48:48 AM 45.4831 -118.9794 101° East 527 606 33,000  Level Seattle Center
Fri 09:49:49 AM 45.4542 -118.7722 101° East 531 611 33,000  Level Seattle Center
Fri 09:50:50 AM 45.4261 -118.5683 101° East 527 606 33,000  Level Seattle Center
Fri 09:51:51 AM 45.3969 -118.3642 101° East 527 606 33,000  Level Seattle Center
Fri 09:53:03 AM 45.3947 -118.1147 91° East 531 611 33,000  Level Seattle Center
Fri 09:54:04 AM 45.3950 -117.9061 90° East 526 605 33,000  Level Seattle Center
Fri 09:55:05 AM 45.3936 -117.6983 90° East 527 606 33,000  Level Seattle Center
Fri 09:56:06 AM 45.3972 -117.4914 89° East 525 604 33,000  Level Seattle Center
Fri 09:57:06 AM 45.3989 -117.2867 89° East 521 600 33,000  Level Seattle Center
Fri 09:58:07 AM 45.4011 -117.0553 89° East 523 602 33,000  Level Seattle Center
Fri 09:59:08 AM 45.4028 -116.8569 89° East 523 602 33,000  Level Seattle Center
Fri 10:00:09 AM 45.4042 -116.6578 89° East 523 602 33,000  Level Seattle Center
Fri 10:01:09 AM 45.4047 -116.4258 90° East 523 602 33,000  Level Seattle Center
Fri 10:02:10 AM 45.4053 -116.2261 90° East 525 604 33,000  Level Seattle Center
Fri 10:03:11 AM 45.4067 -116.0258 89° East 526 605 33,000  Level Seattle Center
Fri 10:04:12 AM 45.4069 -115.7914 90° East 531 611 33,000  Level Salt Lake Center
Fri 10:05:13 AM 45.4056 -115.5928 90° East 524 603 33,000  Level Seattle Center
Fri 10:06:13 AM 45.4047 -115.3894 90° East 532 612 33,000  Level Seattle Center
Fri 10:07:14 AM 45.4028 -115.1544 91° East 532 612 33,000  Level Seattle Center
Fri 10:08:15 AM 45.4008 -114.9544 91° East 530 610 33,000  Level Seattle Center
Fri 10:09:18 AM 45.3986 -114.7214 91° East 527 606 33,000  Level Salt Lake Center
Fri 10:10:20 AM 45.3961 -114.5211 91° East 528 608 33,000  Level Salt Lake Center
Fri 10:11:21 AM 45.3942 -114.3208 91° East 529 609 33,000  Level Salt Lake Center
Fri 10:12:23 AM 45.3906 -114.0867 91° East 529 609 33,000  Level Salt Lake Center
Fri 10:13:24 AM 45.3869 -113.8861 91° East 530 610 33,000  Level Salt Lake Center
Fri 10:14:25 AM 45.3828 -113.6889 92° East 524 603 33,000  Level Salt Lake Center
Fri 10:15:27 AM 45.3778 -113.4669 92° East 524 603 33,000  Level Salt Lake Center
Fri 10:16:28 AM 45.3725 -113.2619 92° East 520 598 33,000  Level Salt Lake Center
Fri 10:17:30 AM 45.3703 -113.0608 91° East 511 588 33,000  Level Salt Lake Center
Fri 10:18:31 AM 45.3642 -112.8583 92° East 513 590 33,000  Level Salt Lake Center
Fri 10:19:33 AM 45.3567 -112.6322 93° East 516 594 33,000  Level Salt Lake Center
Fri 10:20:34 AM 45.3500 -112.4369 93° East 518 596 33,000  Level Salt Lake Center
Fri 10:21:36 AM 45.3425 -112.2078 93° East 519 597 33,000  Level Salt Lake Center
Fri 10:22:37 AM 45.3372 -112.0017 92° East 521 600 33,000  Level Salt Lake Center
Fri 10:23:39 AM 45.3297 -111.7967 93° East 523 602 33,000  Level Salt Lake Center
Fri 10:24:40 AM 45.3228 -111.5922 93° East 522 601 33,000  Level Salt Lake Center
Fri 10:25:42 AM 45.3136 -111.3900 94° East 519 597 33,000  Level Salt Lake Center
Fri 10:26:43 AM 45.3061 -111.1878 93° East 518 596 33,000 -98 Level Salt Lake Center
Fri 10:27:45 AM 45.2950 -110.9450 94° East 519 597 32,800 -726 Descending Salt Lake Center
Fri 10:28:47 AM 45.2864 -110.7439 93° East 517 595 31,500 -878 Descending Salt Lake Center
Fri 10:29:48 AM 45.2775 -110.5408 93° East 517 595 31,000 -244 Descending Salt Lake Center
Fri 10:30:50 AM 45.2678 -110.3472 94° East 515 593 31,000 195 Level Salt Lake Center
Fri 10:31:51 AM 45.2581 -110.1178 93° East 521 600 31,400 976 Climbing Salt Lake Center
Fri 10:32:53 AM 45.2469 -109.9258 95° East 512 589 33,000 774 Climbing Salt Lake Center
Fri 10:33:55 AM 45.2342 -109.7172 95° East 480 552 33,000  Level Salt Lake Center
Fri 10:34:57 AM 45.2233 -109.5328 95° East 489 563 33,000  Level Salt Lake Center
Fri 10:35:58 AM 45.2106 -109.3206 95° East 484 557 33,000  Level Salt Lake Center
Fri 10:37:00 AM 45.2008 -109.1378 94° East 485 558 33,000  Level Salt Lake Center
Fri 10:38:02 AM 45.1897 -108.9539 95° East 488 562 33,000  Level Salt Lake Center
Fri 10:39:03 AM 45.1764 -108.7367 95° East 495 570 33,000  Level Salt Lake Center
Fri 10:40:05 AM 45.1628 -108.5439 96° East 510 587 33,000  Level Salt Lake Center
Fri 10:41:07 AM 45.1483 -108.3172 95° East 516 594 33,000  Level Salt Lake Center
Fri 10:42:09 AM 45.1350 -108.1225 95° East 517 595 33,000  Level Salt Lake Center
Fri 10:43:10 AM 45.1206 -107.9275 96° East 515 593 33,000  Level Salt Lake Center
Fri 10:44:12 AM 45.1036 -107.7044 96° East 504 580 33,000  Level Salt Lake Center
Fri 10:45:14 AM 45.0903 -107.5172 96° East 494 568 33,000  Level Salt Lake Center
Fri 10:46:16 AM 45.0736 -107.3022 96° East 490 564 33,000  Level Salt Lake Center
Fri 10:47:17 AM 45.0600 -107.1186 96° East 487 560 33,000  Level Salt Lake Center
Fri 10:48:19 AM 45.0464 -106.9350 96° East 487 560 33,000  Level Salt Lake Center
Fri 10:49:21 AM 45.0278 -106.7183 97° East 495 570 33,000  Level Salt Lake Center
Fri 10:50:23 AM 45.0131 -106.5339 96° East 494 568 33,000  Level Salt Lake Center
Fri 10:51:25 AM 44.9956 -106.3178 96° East 495 570 33,000  Level Salt Lake Center
Fri 10:52:27 AM 44.9783 -106.1331 97° East 497 572 33,000  Level Salt Lake Center
Fri 10:52:46 AM 44.9722 -106.0714 98° East 497 572 33,000  Level Denver Center
Fri 10:53:48 AM 44.9528 -105.8564 97° East 495 570 33,000  Level Denver Center
Fri 10:54:30 AM 44.9422 -105.7339 97° East 494 568 33,000  Level Salt Lake Center
Fri 10:55:32 AM 44.9233 -105.5206 97° East 492 566 33,000  Level Salt Lake Center
Fri 10:55:52 AM 44.9167 -105.4597 99° East 493 567 33,000  Level Denver Center
Fri 10:56:34 AM 44.9053 -105.3361 97° East 493 567 33,000  Level Salt Lake Center
Fri 10:57:36 AM 44.8881 -105.1506 97° East 499 574 33,000  Level Salt Lake Center
Fri 10:57:57 AM 44.8781 -105.0572 99° East 502 578 33,000  Level Denver Center
Fri 10:58:59 AM 44.8594 -104.8714 98° East 502 578 33,000 524 Level Denver Center
Fri 10:59:40 AM 44.8475 -104.7456 98° East 502 578 33,900 1,165 Climbing Salt Lake Center
Fri 11:00:42 AM 44.8253 -104.5336 98° East 500 575 35,000 795 Climbing Salt Lake Center
Fri 11:01:03 AM 44.8186 -104.4750 99° East 496 571 35,000  Level Denver Center
Fri 11:01:44 AM 44.8067 -104.3497 98° East 498 573 35,000  Level Salt Lake Center
Fri 11:02:46 AM 44.7844 -104.1364 98° East 494 568 35,000  Level Salt Lake Center
Fri 11:03:07 AM 44.7769 -104.0781 100° East 492 566 35,000  Level Denver Center
Fri 11:04:09 AM 44.7583 -103.8956 98° East 492 566 35,000  Level Denver Center
Fri 11:05:11 AM 44.7356 -103.6803 98° East 497 572 35,000  Level Denver Center
Fri 11:06:13 AM 44.7142 -103.4906 99° East 496 571 35,000  Level Denver Center
Fri 11:07:15 AM 44.6919 -103.2986 99° East 498 573 35,000  Level Denver Center
Fri 11:08:17 AM 44.6703 -103.1081 99° East 495 570 35,000  Level Denver Center
Fri 11:09:19 AM 44.6436 -102.8783 99° East 498 573 35,000 581 Level Denver Center
Fri 11:10:21 AM 44.6211 -102.6872 99° East 497 572 36,200 968 Climbing Denver Center
Fri 11:11:23 AM 44.5989 -102.5000 99° East 491 565 37,000 387 Climbing Denver Center
Fri 11:12:25 AM 44.5767 -102.3128 99° East 489 563 37,000  Level Denver Center
Fri 11:13:27 AM 44.5533 -102.1228 100° East 492 566 37,000  Level Denver Center
Fri 11:14:29 AM 44.5294 -101.9325 100° East 495 570 37,000  Level Denver Center
Fri 11:15:31 AM 44.4989 -101.7006 100° East 503 579 37,000  Level Denver Center
Fri 11:16:11 AM 44.4819 -101.5861 102° East 502 578 37,000  Level Minneapolis Center
Fri 11:17:13 AM 44.4575 -101.3956 100° East 501 577 37,000  Level Minneapolis Center
Fri 11:17:35 AM 44.4481 -101.3194 100° East 501 577 37,000  Level Denver Center
Fri 11:18:15 AM 44.4331 -101.2089 101° East 498 573 37,000  Level Minneapolis Center
Fri 11:19:17 AM 44.4081 -101.0208 100° East 495 570 37,000  Level Minneapolis Center
Fri 11:20:19 AM 44.3794 -100.7978 100° East 492 566 37,000  Level Minneapolis Center
Fri 11:21:21 AM 44.3536 -100.6128 101° East 489 563 37,000  Level Minneapolis Center
Fri 11:22:23 AM 44.3292 -100.4275 100° East 489 563 37,000  Level Minneapolis Center
Fri 11:23:25 AM 44.3192 -100.2389 94° East 492 566 37,000  Level Minneapolis Center
Fri 11:24:28 AM 44.3186 -100.0506 90° East 490 564 37,000  Level Minneapolis Center
Fri 11:25:30 AM 44.3172 -99.8239 90° East 490 564 37,000  Level Minneapolis Center
Fri 11:26:32 AM 44.3156 -99.6325 91° East 492 566 37,000  Level Minneapolis Center
Fri 11:27:34 AM 44.3028 -99.4433 95° East 494 568 37,000  Level Minneapolis Center
Fri 11:28:36 AM 44.2864 -99.2556 97° East 492 566 37,000  Level Minneapolis Center
Fri 11:29:38 AM 44.2706 -99.0661 97° East 491 565 37,000  Level Minneapolis Center
Fri 11:30:39 AM 44.2564 -98.9147 97° East 493 567 37,000  Level Minneapolis Center
Fri 11:31:42 AM 44.2222 -98.6506 100° East 495 570 37,000  Level Minneapolis Center
Fri 11:32:44 AM 44.1836 -98.4717 107° East 489 563 37,000  Level Minneapolis Center
Fri 11:33:46 AM 44.1494 -98.2869 104° East 493 567 37,000  Level Minneapolis Center
Fri 11:34:48 AM 44.1153 -98.1025 104° East 493 567 37,000  Level Minneapolis Center
Fri 11:35:50 AM 44.0806 -97.9172 105° East 495 570 37,000  Level Minneapolis Center
Fri 11:36:52 AM 44.0453 -97.7331 105° East 496 571 37,000  Level Minneapolis Center
Fri 11:37:54 AM 44.0089 -97.5078 103° East 499 574 37,000  Level Minneapolis Center
Fri 11:38:56 AM 43.9842 -97.3203 100° East 498 573 37,000  Level Minneapolis Center
Fri 11:39:58 AM 43.9603 -97.1311 100° East 499 574 37,000  Level Minneapolis Center
Fri 11:41:01 AM 43.9342 -96.9428 101° East 500 575 37,000  Level Minneapolis Center
Fri 11:42:03 AM 43.9083 -96.7539 101° East 501 577 37,000  Level Minneapolis Center
Fri 11:43:05 AM 43.8764 -96.5286 101° East 502 578 37,000  Level Minneapolis Center
Fri 11:44:07 AM 43.8497 -96.3406 101° East 504 580 37,000  Level Minneapolis Center
Fri 11:45:09 AM 43.8228 -96.1528 101° East 505 581 37,000  Level Minneapolis Center
Fri 11:46:11 AM 43.7961 -95.9653 101° East 504 580 37,000  Level Minneapolis Center
Fri 11:47:13 AM 43.7617 -95.7386 102° East 506 582 37,000  Level Minneapolis Center
Fri 11:48:15 AM 43.7339 -95.5500 101° East 505 581 37,000  Level Minneapolis Center
Fri 11:49:17 AM 43.7047 -95.3614 102° East 504 580 37,000  Level Minneapolis Center
Fri 11:50:19 AM 43.6761 -95.1728 102° East 505 581 37,000  Level Minneapolis Center
Fri 11:51:21 AM 43.6472 -94.9833 102° East 505 581 37,000  Level Minneapolis Center
Fri 11:52:23 AM 43.6172 -94.7942 102° East 508 585 37,000  Level Minneapolis Center
Fri 11:53:25 AM 43.5806 -94.5653 102° East 511 588 37,000  Level Minneapolis Center
Fri 11:54:27 AM 43.5492 -94.3750 103° East 512 589 37,000  Level Minneapolis Center
Fri 11:55:29 AM 43.5206 -94.1917 102° East 510 587 37,000  Level Minneapolis Center
Fri 11:56:31 AM 43.4883 -94.0022 103° East 512 589 37,000  Level Minneapolis Center
Fri 11:57:33 AM 43.4567 -93.8142 103° East 510 587 37,000  Level Minneapolis Center
Fri 11:58:35 AM 43.4194 -93.5892 103° East 508 585 37,000  Level Minneapolis Center
Fri 11:59:37 AM 43.3872 -93.4031 103° East 506 582 37,000  Level Minneapolis Center
Fri 12:00:40 PM 43.3556 -93.2161 103° East 507 583 37,000  Level Minneapolis Center
Fri 12:01:42 PM 43.3219 -93.0300 104° East 507 583 37,000  Level Minneapolis Center
Fri 12:02:44 PM 43.2894 -92.8419 103° East 509 586 37,000  Level Minneapolis Center
Fri 12:03:46 PM 43.2483 -92.6150 104° East 514 592 37,000  Level Minneapolis Center
Fri 12:04:48 PM 43.2150 -92.4275 104° East 511 588 37,000  Level Minneapolis Center
Fri 12:05:09 PM 43.2003 -92.3531 105° East 511 588 37,000 -290 Level Chicago Center
Fri 12:05:50 PM 43.1872 -92.2772 103° East 511 588 36,700 -1,689 Descending Minneapolis Center
Fri 12:06:52 PM 43.1469 -92.0544 104° East 505 581 34,100 -2,323 Descending Minneapolis Center
Fri 12:07:54 PM 43.1122 -91.8669 104° East 507 583 31,900 -2,169 Descending Minneapolis Center
Fri 12:08:15 PM 43.0972 -91.7906 105° East 512 589 31,100 -643 Descending Chicago Center
Fri 12:09:18 PM 43.0606 -91.5950 104° East 523 602 31,000 -350 Descending Chicago Center
Fri 12:09:58 PM 43.0308 -91.4375 104° East 526 605 30,500 -1,059 Descending Minneapolis Center
Fri 12:11:00 PM 42.9964 -91.2553 104° East 501 577 29,200 -1,071 Descending Minneapolis Center
Fri 12:11:22 PM 42.9831 -91.1856 105° East 489 563 29,000 -143 Descending Chicago Center
Fri 12:12:24 PM 42.9453 -90.9964 105° East 513 590 29,000  Level Chicago Center
Fri 12:13:26 PM 42.9078 -90.8072 105° East 517 595 29,000 -387 Level Chicago Center
Fri 12:14:28 PM 42.8697 -90.6211 106° East 514 592 28,200 -919 Descending Chicago Center
Fri 12:15:30 PM 42.8350 -90.4383 104° East 504 580 27,100 -1,016 Descending Chicago Center
Fri 12:16:32 PM 42.7975 -90.2567 106° East 502 578 26,100 -1,056 Descending Chicago Center
Fri 12:17:35 PM 42.7544 -90.0444 105° East 488 562 24,900 -1,392 Descending Chicago Center
Fri 12:18:37 PM 42.7186 -89.8767 106° East 486 559 23,200 -1,984 Descending Chicago Center
Fri 12:19:39 PM 42.6842 -89.7092 106° East 472 543 20,800 -2,468 Descending Chicago Center
Fri 12:20:41 PM 42.6442 -89.5214 106° East 450 518 18,100 -1,790 Descending Chicago Center
Fri 12:21:43 PM 42.6131 -89.3678 105° East 430 495 17,100 -581 Descending Chicago Center
Fri 12:22:45 PM 42.5800 -89.2147 106° East 427 491 16,900 -1,113 Descending Chicago Center
Fri 12:23:47 PM 42.5472 -89.0647 106° East 420 483 14,800 -2,032 Descending Chicago Center
Fri 12:24:49 PM 42.5028 -88.9250 113° Southeast 407 468 12,700 -2,032 Descending Chicago Center
Fri 12:25:51 PM 42.4564 -88.7694 112° Southeast 389 448 10,600 -1,210 Descending Chicago Center
Fri 12:26:53 PM 42.4219 -88.6508 111° Southeast 346 398 10,200 -726 Descending Chicago Center
Fri 12:27:55 PM 42.3908 -88.5506 113° Southeast 301 346 9,100 -864 Descending Chicago Center
Fri 12:28:58 PM 42.3589 -88.4489 113° Southeast 293 337 8,400 -1,008 Descending Chicago Center
Fri 12:30:00 PM 42.2942 -88.3928 147° Southeast 299 344 7,000 -1,161 Descending Chicago Center
Fri 12:31:02 PM 42.2153 -88.3900 179° South 289 333 6,000 -484 Descending Chicago Center
Fri 12:32:04 PM 42.1350 -88.3914 181° South 289 333 6,000 -484 Level Chicago Center
Fri 12:33:06 PM 42.0417 -88.3875 178° South 283 326 5,000 -484 Descending Chicago Center
Fri 12:34:08 PM 41.9986 -88.3108 127° Southeast 266 306 5,000 -290 Level Chicago Center
Fri 12:35:10 PM 41.9706 -88.2383 117° Southeast 239 275 4,400 -484 Descending Chicago Center
Fri 12:36:12 PM 41.9678 -88.1592 93° East 226 260 4,000 -387 Descending Chicago Center

Login

Don't have an account? Register now (free) for customized features, flight alerts, and more!